Informes METAR cercanos

 

LEZL - Sevilla
Actualización: 16/04/2024 07:00
Despejado
Despejado
 Viento del E
Viento: E 7 km/h
Temperatura: 14°C
Rocío: 12°C
Humedad: 88%
Barómetro: 1016 hPa
Resumen: Despejado
Visibility: greater than 10 km
2024/04/16 05:00 LEZL 160500Z 09004KT CAVOK 14/12 Q1016 NOSIG
LEMO - Morón, Sevilla
Actualización: 16/04/2024 07:00
Despejado
Despejado
 Viento del calm
Viento: Calma
Temperatura: 13°C
Rocío: 12°C
Humedad: 94%
Barómetro: 1016 hPa
Resumen: Despejado
Visibility: greater than 10 km
2024/04/16 05:00 LEMO 160500Z 00000KT CAVOK 13/12 Q1016 NOSIG
 
LEJR - Jeréz, Cádiz
Actualización: 16/04/2024 07:00
Despejado
Despejado
 Viento del N
Viento: N 4 km/h
Temperatura: 12°C
Rocío: 10°C
Humedad: 88%
Barómetro: 1016 hPa
Resumen: Despejado
Visibility: greater than 10 km
2024/04/16 05:00 LEJR 160500Z 01002KT CAVOK 12/10 Q1016
LERT - Rota. Cádiz
Actualización: 16/04/2024 07:00
Despejado
Despejado
 Viento del N
Viento: N 6 km/h
Temperatura: 15°C
Rocío: 13°C
Humedad: 88%
Barómetro: 1016 hPa
Resumen: Despejado
Visibility: greater than 10 km
2024/04/16 05:00 LERT 160500Z 36003KT 330V040 CAVOK 15/13 Q1016 NOSIG
 
LEMG - Málaga
Actualización: 16/04/2024 07:00
Despejado
Despejado
 Viento del O
Viento: O 9 km/h
Temperatura: 15°C
Rocío: 11°C
Humedad: 77%
Barómetro: 1016 hPa
Resumen: Despejado
Visibility: greater than 10 km
2024/04/16 05:00 LEMG 160500Z 27005KT 230V290 CAVOK 15/11 Q1016 NOSIG
LEBA - Córdoba
Actualización: 16/04/2024 07:00
Despejado
Despejado
 Viento del varies
Viento: varies 2 km/h
Temperatura: 12°C
Rocío: